sensor_id;sensor_type;location;lat;lon;timestamp;pressure;altitude;pressure_sealevel;temperature;humidity
47983;BME280;33751;50.816;-1.214;2022-10-03T00:00:11;102667.82;;;10.65;100.00
47983;BME280;33751;50.816;-1.214;2022-10-03T00:03:06;102664.88;;;11.00;100.00
47983;BME280;33751;50.816;-1.214;2022-10-03T00:05:46;102664.35;;;10.54;100.00
47983;BME280;33751;50.816;-1.214;2022-10-03T00:08:30;102665.37;;;10.42;100.00
47983;BME280;33751;50.816;-1.214;2022-10-03T00:11:10;102664.51;;;10.18;100.00
47983;BME280;33751;50.816;-1.214;2022-10-03T00:13:53;102664.35;;;10.35;100.00
47983;BME280;33751;50.816;-1.214;2022-10-03T00:16:27;102664.59;;;10.11;100.00
47983;BME280;33751;50.816;-1.214;2022-10-03T00:19:07;102666.43;;;9.79;100.00
47983;BME280;33751;50.816;-1.214;2022-10-03T00:21:49;102673.60;;;9.92;100.00
47983;BME280;33751;50.816;-1.214;2022-10-03T00:24:29;102680.48;;;9.93;100.00
47983;BME280;33751;50.816;-1.214;2022-10-03T00:27:05;102682.41;;;10.22;100.00
47983;BME280;33751;50.816;-1.214;2022-10-03T00:29:44;102687.35;;;9.97;100.00
47983;BME280;33751;50.816;-1.214;2022-10-03T00:32:28;102691.41;;;9.91;100.00
47983;BME280;33751;50.816;-1.214;2022-10-03T00:35:11;102695.00;;;10.17;100.00
47983;BME280;33751;50.816;-1.214;2022-10-03T00:37:45;102692.21;;;10.11;100.00
47983;BME280;33751;50.816;-1.214;2022-10-03T00:40:35;102695.00;;;10.07;100.00
47983;BME280;33751;50.816;-1.214;2022-10-03T00:43:21;102695.51;;;10.07;100.00
47983;BME280;33751;50.816;-1.214;2022-10-03T00:46:22;102695.66;;;9.98;100.00
47983;BME280;33751;50.816;-1.214;2022-10-03T00:49:13;102700.79;;;9.75;100.00
47983;BME280;33751;50.816;-1.214;2022-10-03T00:51:59;102701.83;;;9.67;100.00
47983;BME280;33751;50.816;-1.214;2022-10-03T00:54:43;102708.29;;;9.74;100.00
47983;BME280;33751;50.816;-1.214;2022-10-03T00:57:26;102716.36;;;9.58;100.00
47983;BME280;33751;50.816;-1.214;2022-10-03T01:00:12;102715.89;;;9.69;100.00
47983;BME280;33751;50.816;-1.214;2022-10-03T01:02:48;102715.81;;;9.69;100.00
47983;BME280;33751;50.816;-1.214;2022-10-03T01:05:27;102714.18;;;9.62;100.00
47983;BME280;33751;50.816;-1.214;2022-10-03T01:08:20;102713.43;;;9.41;100.00
47983;BME280;33751;50.816;-1.214;2022-10-03T01:10:57;102710.87;;;9.24;100.00
47983;BME280;33751;50.816;-1.214;2022-10-03T01:13:33;102711.12;;;9.61;100.00
47983;BME280;33751;50.816;-1.214;2022-10-03T01:16:13;102713.70;;;9.58;100.00
47983;BME280;33751;50.816;-1.214;2022-10-03T01:18:50;102717.01;;;9.60;100.00
47983;BME280;33751;50.816;-1.214;2022-10-03T01:21:31;102719.54;;;9.72;100.00
47983;BME280;33751;50.816;-1.214;2022-10-03T01:24:18;102722.49;;;9.56;100.00
47983;BME280;33751;50.816;-1.214;2022-10-03T01:26:56;102720.89;;;9.56;100.00
47983;BME280;33751;50.816;-1.214;2022-10-03T01:29:34;102721.49;;;9.58;100.00
47983;BME280;33751;50.816;-1.214;2022-10-03T01:32:09;102721.81;;;9.30;100.00
47983;BME280;33751;50.816;-1.214;2022-10-03T01:34:43;102721.31;;;9.51;100.00
47983;BME280;33751;50.816;-1.214;2022-10-03T01:37:17;102716.52;;;9.09;100.00
47983;BME280;33751;50.816;-1.214;2022-10-03T01:39:54;102715.40;;;9.25;100.00
47983;BME280;33751;50.816;-1.214;2022-10-03T01:42:36;102715.27;;;9.35;100.00
47983;BME280;33751;50.816;-1.214;2022-10-03T01:45:13;102715.26;;;9.56;100.00
47983;BME280;33751;50.816;-1.214;2022-10-03T01:47:47;102712.51;;;9.64;100.00
47983;BME280;33751;50.816;-1.214;2022-10-03T01:50:22;102714.99;;;9.64;100.00
47983;BME280;33751;50.816;-1.214;2022-10-03T01:52:57;102712.73;;;9.18;100.00
47983;BME280;33751;50.816;-1.214;2022-10-03T01:55:34;102708.52;;;9.34;100.00
47983;BME280;33751;50.816;-1.214;2022-10-03T01:58:07;102702.09;;;9.10;100.00
47983;BME280;33751;50.816;-1.214;2022-10-03T02:00:44;102705.03;;;9.71;100.00
47983;BME280;33751;50.816;-1.214;2022-10-03T02:03:19;102708.68;;;9.40;100.00
47983;BME280;33751;50.816;-1.214;2022-10-03T02:05:54;102705.79;;;9.46;100.00
47983;BME280;33751;50.816;-1.214;2022-10-03T02:08:32;102702.06;;;9.46;100.00
47983;BME280;33751;50.816;-1.214;2022-10-03T02:11:04;102700.11;;;9.25;100.00
47983;BME280;33751;50.816;-1.214;2022-10-03T02:13:41;102700.83;;;9.46;100.00
47983;BME280;33751;50.816;-1.214;2022-10-03T02:16:14;102701.14;;;9.28;100.00
47983;BME280;33751;50.816;-1.214;2022-10-03T02:18:52;102695.83;;;9.02;100.00
47983;BME280;33751;50.816;-1.214;2022-10-03T02:21:23;102696.76;;;8.99;100.00
47983;BME280;33751;50.816;-1.214;2022-10-03T02:24:23;102694.51;;;9.09;100.00
47983;BME280;33751;50.816;-1.214;2022-10-03T02:27:16;102692.36;;;8.81;100.00
47983;BME280;33751;50.816;-1.214;2022-10-03T02:30:05;102695.13;;;8.79;100.00
47983;BME280;33751;50.816;-1.214;2022-10-03T02:33:47;102692.67;;;9.02;100.00
47983;BME280;33751;50.816;-1.214;2022-10-03T02:37:07;102693.79;;;8.58;100.00
47983;BME280;33751;50.816;-1.214;2022-10-03T02:40:48;102685.46;;;9.00;100.00
47983;BME280;33751;50.816;-1.214;2022-10-03T02:43:48;102676.64;;;8.61;100.00
47983;BME280;33751;50.816;-1.214;2022-10-03T02:46:49;102669.66;;;8.80;100.00
47983;BME280;33751;50.816;-1.214;2022-10-03T02:50:47;102666.69;;;9.48;100.00
47983;BME280;33751;50.816;-1.214;2022-10-03T02:53:39;102673.40;;;9.09;100.00
47983;BME280;33751;50.816;-1.214;2022-10-03T02:56:41;102668.12;;;9.46;100.00
47983;BME280;33751;50.816;-1.214;2022-10-03T02:59:44;102669.85;;;9.24;100.00
47983;BME280;33751;50.816;-1.214;2022-10-03T03:03:55;102670.17;;;9.54;100.00
47983;BME280;33751;50.816;-1.214;2022-10-03T03:06:44;102676.90;;;9.02;100.00
47983;BME280;33751;50.816;-1.214;2022-10-03T03:09:56;102676.94;;;9.48;100.00
47983;BME280;33751;50.816;-1.214;2022-10-03T03:12:54;102672.87;;;9.34;100.00
47983;BME280;33751;50.816;-1.214;2022-10-03T03:16:19;102679.41;;;9.60;100.00
47983;BME280;33751;50.816;-1.214;2022-10-03T03:19:09;102675.01;;;9.23;100.00
47983;BME280;33751;50.816;-1.214;2022-10-03T03:21:43;102668.00;;;9.43;100.00
47983;BME280;33751;50.816;-1.214;2022-10-03T03:25:00;102662.39;;;9.67;100.00
47983;BME280;33751;50.816;-1.214;2022-10-03T03:27:41;102660.74;;;9.54;100.00
47983;BME280;33751;50.816;-1.214;2022-10-03T03:30:17;102665.87;;;9.61;100.00
47983;BME280;33751;50.816;-1.214;2022-10-03T03:32:55;102668.38;;;9.65;100.00
47983;BME280;33751;50.816;-1.214;2022-10-03T03:35:37;102668.75;;;9.33;100.00
47983;BME280;33751;50.816;-1.214;2022-10-03T03:38:19;102668.26;;;9.36;100.00
47983;BME280;33751;50.816;-1.214;2022-10-03T03:41:01;102668.94;;;9.52;100.00
47983;BME280;33751;50.816;-1.214;2022-10-03T03:43:46;102661.81;;;9.69;100.00
47983;BME280;33751;50.816;-1.214;2022-10-03T03:46:29;102652.02;;;9.61;100.00
47983;BME280;33751;50.816;-1.214;2022-10-03T03:49:05;102651.82;;;9.59;100.00
47983;BME280;33751;50.816;-1.214;2022-10-03T03:51:44;102652.18;;;9.93;100.00
47983;BME280;33751;50.816;-1.214;2022-10-03T03:54:40;102646.02;;;9.84;100.00
47983;BME280;33751;50.816;-1.214;2022-10-03T03:57:23;102640.92;;;9.93;100.00
47983;BME280;33751;50.816;-1.214;2022-10-03T04:00:05;102632.92;;;9.79;100.00
47983;BME280;33751;50.816;-1.214;2022-10-03T04:02:45;102631.74;;;9.89;100.00
47983;BME280;33751;50.816;-1.214;2022-10-03T04:05:25;102636.07;;;10.29;100.00
47983;BME280;33751;50.816;-1.214;2022-10-03T04:08:09;102631.26;;;10.01;100.00
47983;BME280;33751;50.816;-1.214;2022-10-03T04:10:51;102631.49;;;10.07;100.00
47983;BME280;33751;50.816;-1.214;2022-10-03T04:13:32;102627.00;;;10.06;100.00
47983;BME280;33751;50.816;-1.214;2022-10-03T04:16:18;102624.61;;;10.04;100.00
47983;BME280;33751;50.816;-1.214;2022-10-03T04:18:58;102621.54;;;10.15;100.00
47983;BME280;33751;50.816;-1.214;2022-10-03T04:21:45;102624.62;;;10.10;100.00
47983;BME280;33751;50.816;-1.214;2022-10-03T04:24:38;102633.01;;;10.17;100.00
47983;BME280;33751;50.816;-1.214;2022-10-03T04:27:31;102633.58;;;10.21;100.00
47983;BME280;33751;50.816;-1.214;2022-10-03T04:30:08;102638.41;;;10.13;100.00
47983;BME280;33751;50.816;-1.214;2022-10-03T04:32:49;102640.77;;;10.06;100.00
47983;BME280;33751;50.816;-1.214;2022-10-03T04:35:40;102647.19;;;10.28;100.00
47983;BME280;33751;50.816;-1.214;2022-10-03T04:38:20;102648.60;;;10.18;100.00
47983;BME280;33751;50.816;-1.214;2022-10-03T04:41:01;102652.58;;;10.22;100.00
47983;BME280;33751;50.816;-1.214;2022-10-03T04:43:36;102653.97;;;10.51;100.00
47983;BME280;33751;50.816;-1.214;2022-10-03T04:46:21;102652.51;;;10.80;100.00
47983;BME280;33751;50.816;-1.214;2022-10-03T04:48:56;102653.66;;;10.59;100.00
47983;BME280;33751;50.816;-1.214;2022-10-03T04:51:39;102658.70;;;10.65;100.00
47983;BME280;33751;50.816;-1.214;2022-10-03T04:54:15;102660.54;;;10.77;100.00
47983;BME280;33751;50.816;-1.214;2022-10-03T04:56:51;102657.25;;;10.67;100.00
47983;BME280;33751;50.816;-1.214;2022-10-03T04:59:39;102652.32;;;10.86;100.00
47983;BME280;33751;50.816;-1.214;2022-10-03T05:02:17;102643.81;;;10.85;100.00
47983;BME280;33751;50.816;-1.214;2022-10-03T05:05:02;102645.31;;;10.24;100.00
47983;BME280;33751;50.816;-1.214;2022-10-03T05:07:39;102644.83;;;10.37;100.00
47983;BME280;33751;50.816;-1.214;2022-10-03T05:10:27;102640.02;;;10.42;100.00
47983;BME280;33751;50.816;-1.214;2022-10-03T05:13:04;102637.53;;;10.80;100.00
47983;BME280;33751;50.816;-1.214;2022-10-03T05:15:40;102630.74;;;10.84;100.00
47983;BME280;33751;50.816;-1.214;2022-10-03T05:18:15;102631.88;;;10.49;100.00
47983;BME280;33751;50.816;-1.214;2022-10-03T05:20:48;102629.33;;;10.46;100.00
47983;BME280;33751;50.816;-1.214;2022-10-03T05:23:26;102622.36;;;10.63;100.00
47983;BME280;33751;50.816;-1.214;2022-10-03T05:26:04;102619.26;;;10.73;100.00
47983;BME280;33751;50.816;-1.214;2022-10-03T05:28:39;102624.78;;;10.58;100.00
47983;BME280;33751;50.816;-1.214;2022-10-03T05:31:34;102619.70;;;10.25;100.00
47983;BME280;33751;50.816;-1.214;2022-10-03T05:34:13;102619.12;;;10.30;100.00
47983;BME280;33751;50.816;-1.214;2022-10-03T05:36:56;102625.83;;;10.31;100.00
47983;BME280;33751;50.816;-1.214;2022-10-03T05:39:38;102629.18;;;10.17;100.00
47983;BME280;33751;50.816;-1.214;2022-10-03T05:42:18;102625.89;;;10.41;100.00
47983;BME280;33751;50.816;-1.214;2022-10-03T05:44:58;102638.47;;;10.27;100.00
47983;BME280;33751;50.816;-1.214;2022-10-03T05:47:30;102642.27;;;10.44;100.00
47983;BME280;33751;50.816;-1.214;2022-10-03T05:50:13;102645.36;;;10.56;100.00
47983;BME280;33751;50.816;-1.214;2022-10-03T05:52:54;102649.33;;;10.54;100.00
47983;BME280;33751;50.816;-1.214;2022-10-03T05:55:36;102647.85;;;10.56;100.00
47983;BME280;33751;50.816;-1.214;2022-10-03T05:58:53;102644.47;;;10.91;100.00
47983;BME280;33751;50.816;-1.214;2022-10-03T06:01:43;102644.54;;;10.65;100.00
47983;BME280;33751;50.816;-1.214;2022-10-03T06:04:31;102637.21;;;10.71;100.00
47983;BME280;33751;50.816;-1.214;2022-10-03T06:07:18;102634.89;;;10.83;100.00
47983;BME280;33751;50.816;-1.214;2022-10-03T06:10:17;102636.16;;;10.75;100.00
47983;BME280;33751;50.816;-1.214;2022-10-03T06:13:04;102631.94;;;10.42;100.00
47983;BME280;33751;50.816;-1.214;2022-10-03T06:15:46;102631.81;;;10.75;100.00
47983;BME280;33751;50.816;-1.214;2022-10-03T06:18:36;102635.77;;;10.95;100.00
47983;BME280;33751;50.816;-1.214;2022-10-03T06:21:30;102632.71;;;10.69;100.00
47983;BME280;33751;50.816;-1.214;2022-10-03T06:24:25;102628.84;;;10.64;100.00
47983;BME280;33751;50.816;-1.214;2022-10-03T06:27:20;102629.32;;;10.35;100.00
47983;BME280;33751;50.816;-1.214;2022-10-03T06:30:03;102626.65;;;10.65;100.00
47983;BME280;33751;50.816;-1.214;2022-10-03T06:33:58;102625.22;;;10.83;100.00
47983;BME280;33751;50.816;-1.214;2022-10-03T06:36:47;102628.68;;;10.79;100.00
47983;BME280;33751;50.816;-1.214;2022-10-03T06:39:54;102629.92;;;10.68;100.00
47983;BME280;33751;50.816;-1.214;2022-10-03T06:42:54;102626.17;;;10.74;100.00
47983;BME280;33751;50.816;-1.214;2022-10-03T06:46:00;102627.79;;;10.75;100.00
47983;BME280;33751;50.816;-1.214;2022-10-03T06:48:44;102634.48;;;10.57;100.00
47983;BME280;33751;50.816;-1.214;2022-10-03T06:51:40;102633.92;;;10.87;100.00
47983;BME280;33751;50.816;-1.214;2022-10-03T06:55:21;102633.30;;;10.99;100.00
47983;BME280;33751;50.816;-1.214;2022-10-03T06:59:13;102634.73;;;11.30;100.00
47983;BME280;33751;50.816;-1.214;2022-10-03T07:03:23;102629.34;;;11.11;100.00
47983;BME280;33751;50.816;-1.214;2022-10-03T07:06:40;102639.11;;;11.16;100.00
47983;BME280;33751;50.816;-1.214;2022-10-03T07:09:37;102635.46;;;11.06;100.00
47983;BME280;33751;50.816;-1.214;2022-10-03T07:12:37;102631.60;;;10.91;100.00
47983;BME280;33751;50.816;-1.214;2022-10-03T07:15:21;102630.61;;;11.07;100.00
47983;BME280;33751;50.816;-1.214;2022-10-03T07:18:07;102632.27;;;11.10;100.00
47983;BME280;33751;50.816;-1.214;2022-10-03T07:21:00;102636.52;;;11.14;100.00
47983;BME280;33751;50.816;-1.214;2022-10-03T07:23:47;102639.80;;;11.15;100.00
47983;BME280;33751;50.816;-1.214;2022-10-03T07:26:38;102644.79;;;11.18;100.00
47983;BME280;33751;50.816;-1.214;2022-10-03T07:29:19;102644.16;;;11.51;100.00
47983;BME280;33751;50.816;-1.214;2022-10-03T07:31:59;102648.02;;;11.22;100.00
47983;BME280;33751;50.816;-1.214;2022-10-03T07:34:52;102649.88;;;11.35;100.00
47983;BME280;33751;50.816;-1.214;2022-10-03T07:37:43;102654.49;;;11.56;100.00
47983;BME280;33751;50.816;-1.214;2022-10-03T07:41:04;102648.54;;;11.70;100.00
47983;BME280;33751;50.816;-1.214;2022-10-03T07:44:39;102650.92;;;11.85;100.00
47983;BME280;33751;50.816;-1.214;2022-10-03T07:49:12;102643.05;;;12.06;100.00
47983;BME280;33751;50.816;-1.214;2022-10-03T07:51:48;102641.77;;;11.94;100.00
47983;BME280;33751;50.816;-1.214;2022-10-03T07:54:33;102638.71;;;12.01;100.00
47983;BME280;33751;50.816;-1.214;2022-10-03T07:57:15;102636.23;;;12.21;100.00
47983;BME280;33751;50.816;-1.214;2022-10-03T08:00:04;102644.98;;;12.20;100.00
47983;BME280;33751;50.816;-1.214;2022-10-03T08:02:50;102649.19;;;12.02;100.00
47983;BME280;33751;50.816;-1.214;2022-10-03T08:05:37;102648.92;;;12.28;100.00
47983;BME280;33751;50.816;-1.214;2022-10-03T08:08:27;102659.61;;;12.18;100.00
47983;BME280;33751;50.816;-1.214;2022-10-03T08:11:44;102658.91;;;12.53;100.00
47983;BME280;33751;50.816;-1.214;2022-10-03T08:14:17;102660.22;;;12.29;100.00
47983;BME280;33751;50.816;-1.214;2022-10-03T08:17:08;102653.79;;;12.35;100.00
47983;BME280;33751;50.816;-1.214;2022-10-03T08:19:50;102652.77;;;12.44;100.00
47983;BME280;33751;50.816;-1.214;2022-10-03T08:22:42;102663.37;;;12.55;100.00
47983;BME280;33751;50.816;-1.214;2022-10-03T08:25:24;102666.02;;;12.86;100.00
47983;BME280;33751;50.816;-1.214;2022-10-03T08:28:08;102664.66;;;12.85;100.00
47983;BME280;33751;50.816;-1.214;2022-10-03T08:30:56;102663.93;;;12.83;100.00
47983;BME280;33751;50.816;-1.214;2022-10-03T08:33:45;102659.06;;;12.97;100.00
47983;BME280;33751;50.816;-1.214;2022-10-03T08:37:00;102659.66;;;12.96;100.00
47983;BME280;33751;50.816;-1.214;2022-10-03T08:39:44;102666.58;;;12.93;100.00
47983;BME280;33751;50.816;-1.214;2022-10-03T08:43:05;102670.83;;;13.04;100.00
47983;BME280;33751;50.816;-1.214;2022-10-03T08:45:53;102675.98;;;13.39;100.00
47983;BME280;33751;50.816;-1.214;2022-10-03T08:48:45;102679.63;;;13.47;100.00
47983;BME280;33751;50.816;-1.214;2022-10-03T08:52:12;102680.97;;;13.51;100.00
47983;BME280;33751;50.816;-1.214;2022-10-03T08:54:50;102680.57;;;13.60;100.00
47983;BME280;33751;50.816;-1.214;2022-10-03T08:57:31;102679.11;;;13.34;100.00
47983;BME280;33751;50.816;-1.214;2022-10-03T09:00:13;102678.08;;;13.34;100.00
47983;BME280;33751;50.816;-1.214;2022-10-03T09:05:12;102678.35;;;13.66;100.00
47983;BME280;33751;50.816;-1.214;2022-10-03T09:08:36;102677.63;;;13.95;100.00
47983;BME280;33751;50.816;-1.214;2022-10-03T09:11:51;102670.89;;;13.93;100.00
47983;BME280;33751;50.816;-1.214;2022-10-03T09:14:36;102664.24;;;14.02;100.00
47983;BME280;33751;50.816;-1.214;2022-10-03T09:18:47;102665.18;;;14.42;100.00
47983;BME280;33751;50.816;-1.214;2022-10-03T09:21:54;102661.66;;;14.97;100.00
47983;BME280;33751;50.816;-1.214;2022-10-03T09:24:46;102655.84;;;15.61;100.00
47983;BME280;33751;50.816;-1.214;2022-10-03T09:27:32;102649.18;;;14.96;100.00
47983;BME280;33751;50.816;-1.214;2022-10-03T09:30:14;102648.99;;;14.82;100.00
47983;BME280;33751;50.816;-1.214;2022-10-03T09:33:57;102637.56;;;15.60;100.00
47983;BME280;33751;50.816;-1.214;2022-10-03T09:37:25;102630.24;;;15.79;100.00
47983;BME280;33751;50.816;-1.214;2022-10-03T09:40:13;102625.59;;;15.47;100.00
47983;BME280;33751;50.816;-1.214;2022-10-03T09:43:13;102627.94;;;15.96;100.00
47983;BME280;33751;50.816;-1.214;2022-10-03T09:46:04;102625.08;;;15.63;100.00
47983;BME280;33751;50.816;-1.214;2022-10-03T09:48:57;102626.79;;;16.03;100.00
47983;BME280;33751;50.816;-1.214;2022-10-03T09:51:43;102620.87;;;16.49;100.00
47983;BME280;33751;50.816;-1.214;2022-10-03T09:55:04;102620.02;;;15.85;100.00
47983;BME280;33751;50.816;-1.214;2022-10-03T09:57:57;102620.79;;;16.12;100.00
47983;BME280;33751;50.816;-1.214;2022-10-03T10:00:45;102624.23;;;16.13;100.00
47983;BME280;33751;50.816;-1.214;2022-10-03T10:04:22;102616.57;;;16.22;100.00
47983;BME280;33751;50.816;-1.214;2022-10-03T10:07:59;102616.65;;;16.39;100.00
47983;BME280;33751;50.816;-1.214;2022-10-03T10:10:54;102619.14;;;16.63;100.00
47983;BME280;33751;50.816;-1.214;2022-10-03T10:13:40;102617.08;;;16.63;100.00
47983;BME280;33751;50.816;-1.214;2022-10-03T10:16:34;102613.63;;;16.88;100.00
47983;BME280;33751;50.816;-1.214;2022-10-03T10:19:26;102611.63;;;17.27;100.00
47983;BME280;33751;50.816;-1.214;2022-10-03T10:23:23;102604.94;;;17.36;100.00
47983;BME280;33751;50.816;-1.214;2022-10-03T10:27:06;102606.45;;;17.70;100.00
47983;BME280;33751;50.816;-1.214;2022-10-03T10:29:56;102606.52;;;17.38;100.00
47983;BME280;33751;50.816;-1.214;2022-10-03T10:32:53;102603.14;;;17.33;100.00
47983;BME280;33751;50.816;-1.214;2022-10-03T10:35:45;102606.24;;;17.80;100.00
47983;BME280;33751;50.816;-1.214;2022-10-03T10:39:12;102607.95;;;17.78;100.00
47983;BME280;33751;50.816;-1.214;2022-10-03T10:42:16;102608.37;;;17.61;100.00
47983;BME280;33751;50.816;-1.214;2022-10-03T10:45:22;102605.52;;;17.18;100.00
47983;BME280;33751;50.816;-1.214;2022-10-03T10:48:59;102604.17;;;17.30;100.00
47983;BME280;33751;50.816;-1.214;2022-10-03T10:51:55;102606.84;;;17.85;100.00
47983;BME280;33751;50.816;-1.214;2022-10-03T10:54:50;102604.01;;;17.85;100.00
47983;BME280;33751;50.816;-1.214;2022-10-03T10:58:22;102605.28;;;17.86;100.00
47983;BME280;33751;50.816;-1.214;2022-10-03T11:01:20;102604.87;;;17.87;100.00
47983;BME280;33751;50.816;-1.214;2022-10-03T11:04:16;102607.20;;;17.62;100.00
47983;BME280;33751;50.816;-1.214;2022-10-03T11:07:44;102603.55;;;18.17;100.00
47983;BME280;33751;50.816;-1.214;2022-10-03T11:10:35;102602.09;;;18.39;100.00
47983;BME280;33751;50.816;-1.214;2022-10-03T11:14:15;102601.19;;;18.34;100.00
47983;BME280;33751;50.816;-1.214;2022-10-03T11:17:16;102596.24;;;17.80;100.00
47983;BME280;33751;50.816;-1.214;2022-10-03T11:20:13;102592.31;;;17.67;100.00
47983;BME280;33751;50.816;-1.214;2022-10-03T11:23:11;102591.29;;;17.93;100.00
47983;BME280;33751;50.816;-1.214;2022-10-03T11:26:58;102585.61;;;17.85;100.00
47983;BME280;33751;50.816;-1.214;2022-10-03T11:30:17;102578.36;;;18.16;100.00
47983;BME280;33751;50.816;-1.214;2022-10-03T11:34:16;102578.94;;;18.59;100.00
47983;BME280;33751;50.816;-1.214;2022-10-03T11:37:04;102577.34;;;18.04;100.00
47983;BME280;33751;50.816;-1.214;2022-10-03T11:39:40;102576.68;;;18.31;100.00
47983;BME280;33751;50.816;-1.214;2022-10-03T11:42:19;102581.92;;;18.23;100.00
47983;BME280;33751;50.816;-1.214;2022-10-03T11:44:54;102581.51;;;18.25;100.00
47983;BME280;33751;50.816;-1.214;2022-10-03T11:47:38;102586.53;;;18.44;100.00
47983;BME280;33751;50.816;-1.214;2022-10-03T11:50:44;102579.25;;;18.56;100.00
47983;BME280;33751;50.816;-1.214;2022-10-03T11:53:21;102587.29;;;18.12;100.00
47983;BME280;33751;50.816;-1.214;2022-10-03T11:55:58;102580.57;;;18.09;100.00
47983;BME280;33751;50.816;-1.214;2022-10-03T11:58:34;102583.09;;;18.30;100.00
47983;BME280;33751;50.816;-1.214;2022-10-03T12:01:20;102579.28;;;18.54;100.00
47983;BME280;33751;50.816;-1.214;2022-10-03T12:03:52;102576.58;;;18.14;100.00
47983;BME280;33751;50.816;-1.214;2022-10-03T12:06:48;102580.24;;;18.25;100.00
47983;BME280;33751;50.816;-1.214;2022-10-03T12:09:20;102581.14;;;18.23;100.00
47983;BME280;33751;50.816;-1.214;2022-10-03T12:11:54;102572.48;;;18.03;100.00
47983;BME280;33751;50.816;-1.214;2022-10-03T12:14:26;102575.19;;;18.23;100.00
47983;BME280;33751;50.816;-1.214;2022-10-03T12:17:03;102569.79;;;18.20;100.00
47983;BME280;33751;50.816;-1.214;2022-10-03T12:19:35;102569.83;;;18.17;100.00
47983;BME280;33751;50.816;-1.214;2022-10-03T12:22:17;102567.28;;;18.11;100.00
47983;BME280;33751;50.816;-1.214;2022-10-03T12:24:48;102566.24;;;18.29;100.00
47983;BME280;33751;50.816;-1.214;2022-10-03T12:27:23;102562.83;;;18.20;100.00
47983;BME280;33751;50.816;-1.214;2022-10-03T12:29:55;102566.22;;;18.59;100.00
47983;BME280;33751;50.816;-1.214;2022-10-03T12:32:28;102566.05;;;18.59;100.00
47983;BME280;33751;50.816;-1.214;2022-10-03T12:35:05;102563.03;;;18.12;100.00
47983;BME280;33751;50.816;-1.214;2022-10-03T12:37:42;102563.78;;;18.63;100.00
47983;BME280;33751;50.816;-1.214;2022-10-03T12:40:19;102563.42;;;18.44;100.00
47983;BME280;33751;50.816;-1.214;2022-10-03T12:43:03;102556.82;;;18.47;100.00
47983;BME280;33751;50.816;-1.214;2022-10-03T12:45:38;102551.20;;;18.03;100.00
47983;BME280;33751;50.816;-1.214;2022-10-03T12:48:18;102545.34;;;18.36;100.00
47983;BME280;33751;50.816;-1.214;2022-10-03T12:50:54;102543.61;;;18.35;100.00
47983;BME280;33751;50.816;-1.214;2022-10-03T12:53:31;102540.96;;;18.09;100.00
47983;BME280;33751;50.816;-1.214;2022-10-03T12:56:05;102539.06;;;18.29;100.00
47983;BME280;33751;50.816;-1.214;2022-10-03T12:58:42;102534.12;;;18.43;100.00
47983;BME280;33751;50.816;-1.214;2022-10-03T13:01:20;102534.02;;;18.19;100.00
47983;BME280;33751;50.816;-1.214;2022-10-03T13:03:53;102533.12;;;18.78;100.00
47983;BME280;33751;50.816;-1.214;2022-10-03T13:06:32;102530.42;;;18.42;100.00
47983;BME280;33751;50.816;-1.214;2022-10-03T13:09:11;102525.92;;;18.02;100.00
47983;BME280;33751;50.816;-1.214;2022-10-03T13:11:53;102529.21;;;18.27;100.00
47983;BME280;33751;50.816;-1.214;2022-10-03T13:14:29;102527.70;;;18.67;100.00
47983;BME280;33751;50.816;-1.214;2022-10-03T13:17:11;102522.10;;;18.39;100.00
47983;BME280;33751;50.816;-1.214;2022-10-03T13:19:48;102525.97;;;18.30;100.00
47983;BME280;33751;50.816;-1.214;2022-10-03T13:22:30;102519.29;;;18.38;100.00
47983;BME280;33751;50.816;-1.214;2022-10-03T13:25:16;102513.81;;;18.39;100.00
47983;BME280;33751;50.816;-1.214;2022-10-03T13:27:49;102505.90;;;18.08;100.00
47983;BME280;33751;50.816;-1.214;2022-10-03T13:30:21;102507.27;;;18.26;100.00
47983;BME280;33751;50.816;-1.214;2022-10-03T13:32:53;102506.79;;;17.97;100.00
47983;BME280;33751;50.816;-1.214;2022-10-03T13:35:31;102500.37;;;17.90;100.00
47983;BME280;33751;50.816;-1.214;2022-10-03T13:38:16;102501.48;;;17.62;100.00
47983;BME280;33751;50.816;-1.214;2022-10-03T13:40:53;102498.51;;;17.80;100.00
47983;BME280;33751;50.816;-1.214;2022-10-03T13:43:25;102498.02;;;17.82;100.00
47983;BME280;33751;50.816;-1.214;2022-10-03T13:45:53;102492.68;;;17.82;100.00
47983;BME280;33751;50.816;-1.214;2022-10-03T13:48:22;102490.56;;;17.70;100.00
47983;BME280;33751;50.816;-1.214;2022-10-03T13:50:54;102488.69;;;17.43;100.00
47983;BME280;33751;50.816;-1.214;2022-10-03T13:53:39;102483.42;;;18.04;100.00
47983;BME280;33751;50.816;-1.214;2022-10-03T13:56:12;102481.17;;;17.89;100.00
47983;BME280;33751;50.816;-1.214;2022-10-03T13:58:45;102477.04;;;17.74;100.00
47983;BME280;33751;50.816;-1.214;2022-10-03T14:01:29;102475.78;;;17.55;100.00
47983;BME280;33751;50.816;-1.214;2022-10-03T14:04:14;102475.16;;;17.59;100.00
47983;BME280;33751;50.816;-1.214;2022-10-03T14:06:50;102473.46;;;18.08;100.00
47983;BME280;33751;50.816;-1.214;2022-10-03T14:09:33;102472.83;;;17.91;100.00
47983;BME280;33751;50.816;-1.214;2022-10-03T14:12:13;102465.69;;;17.65;100.00
47983;BME280;33751;50.816;-1.214;2022-10-03T14:14:56;102461.32;;;17.62;100.00
47983;BME280;33751;50.816;-1.214;2022-10-03T14:17:36;102467.12;;;17.48;100.00
47983;BME280;33751;50.816;-1.214;2022-10-03T14:20:19;102467.38;;;17.37;100.00
47983;BME280;33751;50.816;-1.214;2022-10-03T14:23:01;102462.86;;;17.59;100.00
47983;BME280;33751;50.816;-1.214;2022-10-03T14:25:35;102464.86;;;17.21;100.00
47983;BME280;33751;50.816;-1.214;2022-10-03T14:28:12;102457.06;;;17.31;100.00
47983;BME280;33751;50.816;-1.214;2022-10-03T14:30:52;102453.72;;;17.47;100.00